Time;durP1;ratioP1;P1;durP2;ratioP2;P2;SDS_P1;SDS_P2;PMS_P1;PMS_P2;Temp;Humidity;BMP_temperature;BMP_pressure;BME280_temperature;BME280_humidity;BME280_pressure;Samples;Min_cycle;Max_cycle;Signal;HPM_P1;HPM_P2
2021/03/24 00:07:26;;;;;;;32.40;13.93;;;;;;;0.50;94.01;101239.25;20907248;28;20041;-71
2021/03/24 00:17:27;;;;;;;28.83;13.30;;;;;;;0.43;94.48;101247.81;20906994;28;20049;-71
2021/03/24 00:27:28;;;;;;;28.88;13.85;;;;;;;0.24;94.70;101243.53;20970701;28;20044;-72
2021/03/24 00:37:29;;;;;;;28.65;13.93;;;;;;;0.16;96.08;101245.22;20987459;28;20076;-71
2021/03/24 00:47:30;;;;;;;37.35;17.05;;;;;;;0.21;96.60;101235.78;20986979;28;20067;-72
2021/03/24 00:57:31;;;;;;;32.88;15.13;;;;;;;0.11;96.40;101226.31;20970236;28;20044;-72
2021/03/24 01:07:32;;;;;;;32.40;15.07;;;;;;;0.06;95.45;101221.19;20987465;28;20048;-72
2021/03/24 01:17:33;;;;;;;30.20;14.65;;;;;;;-0.15;97.38;101229.72;20985994;28;20434;-71
2021/03/24 01:27:34;;;;;;;31.05;13.77;;;;;;;-0.30;97.29;101216.81;20967736;28;20545;-72
2021/03/24 01:37:39;;;;;;;28.98;13.77;;;;;;;-0.42;97.65;101216.78;20986327;28;20101;-72
2021/03/24 01:47:42;;;;;;;32.83;15.50;;;;;;;-0.41;97.85;101222.78;20876803;28;20045;-72
2021/03/24 01:57:47;;;;;;;37.22;16.67;;;;;;;-0.57;97.05;101206.44;20967113;28;20044;-71
2021/03/24 02:07:54;;;;;;;29.60;14.52;;;;;;;-0.65;97.63;101203.81;20982707;28;20504;-72
2021/03/24 02:17:57;;;;;;;31.85;14.63;;;;;;;-0.66;97.89;101206.41;20981372;28;20052;-71
2021/03/24 02:28:02;;;;;;;33.53;14.50;;;;;;;-0.66;97.46;101211.56;20968958;28;20040;-71
2021/03/24 02:38:07;;;;;;;32.50;14.80;;;;;;;-0.71;97.29;101208.09;20986408;28;20040;-71
2021/03/24 02:48:21;;;;;;;30.67;14.38;;;;;;;-0.85;98.28;101200.31;20993741;28;20132;-71
2021/03/24 02:58:27;;;;;;;30.20;14.95;;;;;;;-0.92;98.48;101202.00;20986846;28;20056;-71
2021/03/24 03:08:33;;;;;;;29.23;14.57;;;;;;;-0.93;98.35;101207.13;20995399;28;20044;-71
2021/03/24 03:19:04;;;;;;;31.58;13.63;;;;;;;-0.98;98.42;101211.38;20987447;28;20091;-71
2021/03/24 03:29:10;;;;;;;29.02;13.45;;;;;;;-1.08;98.50;101201.91;20915171;28;20110;-71
2021/03/24 03:39:15;;;;;;;28.08;13.43;;;;;;;-1.09;99.16;101207.88;20910026;28;20095;-71
2021/03/24 03:49:17;;;;;;;27.30;13.20;;;;;;;-1.18;99.07;101206.13;20913882;28;20098;-71
2021/03/24 04:00:05;;;;;;;25.08;12.45;;;;;;;-1.15;99.47;101198.44;20982254;28;20044;-71
2021/03/24 04:10:06;;;;;;;28.52;12.82;;;;;;;-1.15;98.63;101197.56;20976594;28;20040;-71
2021/03/24 04:20:09;;;;;;;26.25;13.07;;;;;;;-1.17;98.41;101202.72;20978007;28;20045;-71
2021/03/24 04:30:14;;;;;;;23.50;12.40;;;;;;;-1.21;97.57;101208.66;20985040;28;20102;-72
2021/03/24 04:40:23;;;;;;;22.88;11.85;;;;;;;-1.19;97.99;101206.09;20988491;28;20074;-71
2021/03/24 04:50:32;;;;;;;27.05;13.25;;;;;;;-1.16;98.22;101199.28;20973526;28;20099;-71
2021/03/24 05:00:46;;;;;;;31.10;13.52;;;;;;;-1.24;98.65;101211.22;20985803;28;20055;-71
2021/03/24 05:10:49;;;;;;;28.80;13.23;;;;;;;-1.30;99.99;101217.16;20986391;28;20048;-71
2021/03/24 05:21:11;;;;;;;27.98;12.48;;;;;;;-1.38;100.00;101218.84;20969693;28;20075;-71
2021/03/24 05:31:17;;;;;;;26.10;12.20;;;;;;;-1.45;100.00;101211.91;20966942;28;20048;-72
2021/03/24 05:41:32;;;;;;;25.30;12.38;;;;;;;-1.34;99.84;101219.72;20984954;28;20128;-70
2021/03/24 05:51:45;;;;;;;26.10;11.60;;;;;;;-1.24;98.22;101215.50;20925262;28;20189;-70
2021/03/24 06:02:04;;;;;;;24.75;13.38;;;;;;;-1.04;98.18;101221.63;20983671;28;20056;-70
2021/03/24 06:12:24;;;;;;;24.27;12.43;;;;;;;-0.72;97.80;101242.34;20986626;28;20456;-70
2021/03/24 06:22:52;;;;;;;32.75;14.07;;;;;;;-0.58;96.96;101251.84;21006447;22;20617;-73
2021/03/24 06:33:32;;;;;;;32.75;17.23;;;;;;;-0.26;96.93;101257.13;20998809;28;20048;-73
2021/03/24 06:43:43;;;;;;;37.10;17.85;;;;;;;0.17;97.71;101254.66;20997489;28;20048;-73
2021/03/24 06:54:13;;;;;;;32.33;17.17;;;;;;;0.56;97.93;101259.84;20982334;28;20102;-72
2021/03/24 07:04:42;;;;;;;29.98;15.00;;;;;;;0.88;98.79;101251.25;20986606;28;20476;-72
2021/03/24 07:14:56;;;;;;;35.83;16.20;;;;;;;1.18;98.11;101262.34;20995460;28;20541;-72
2021/03/24 07:25:22;;;;;;;25.90;14.20;;;;;;;1.54;97.28;101270.84;20974016;28;20055;-73
2021/03/24 07:35:34;;;;;;;26.90;14.90;;;;;;;1.83;97.80;101288.81;20927160;28;20098;-73
2021/03/24 07:46:06;;;;;;;33.88;17.90;;;;;;;2.13;97.49;101292.09;20937706;28;20048;-73
2021/03/24 07:56:36;;;;;;;38.40;18.98;;;;;;;2.57;96.09;101291.81;20950338;28;20040;-73
2021/03/24 08:06:53;;;;;;;33.33;18.45;;;;;;;2.93;95.21;101274.28;20950561;28;20044;-72
2021/03/24 08:17:09;;;;;;;36.58;20.27;;;;;;;3.28;93.85;101273.94;20955768;28;20056;-73
2021/03/24 08:27:17;;;;;;;39.72;22.05;;;;;;;3.71;90.76;101272.56;20958764;28;20072;-72
2021/03/24 08:37:46;;;;;;;36.63;20.75;;;;;;;4.02;88.91;101278.22;20948178;28;20074;-72
2021/03/24 08:47:52;;;;;;;34.83;19.20;;;;;;;4.51;86.59;101267.16;20952787;28;20040;-71
2021/03/24 08:58:12;;;;;;;32.70;18.88;;;;;;;4.88;86.38;101265.66;20954401;28;20086;-71
2021/03/24 09:08:29;;;;;;;36.70;18.55;;;;;;;5.40;83.57;101251.75;20950759;28;20040;-71
2021/03/24 09:18:49;;;;;;;28.90;16.90;;;;;;;5.89;81.86;101247.28;20943598;28;20083;-72
2021/03/24 09:29:14;;;;;;;32.28;18.90;;;;;;;6.58;80.56;101240.53;20969492;28;20051;-70
2021/03/24 09:39:27;;;;;;;28.57;16.53;;;;;;;6.91;78.04;101237.06;20959247;28;20032;-72
2021/03/24 09:49:34;;;;;;;25.83;15.60;;;;;;;7.32;74.73;101225.56;20956924;28;20079;-72
2021/03/24 09:59:44;;;;;;;27.08;15.32;;;;;;;7.78;71.98;101221.63;20932198;28;20549;-73
2021/03/24 10:10:21;;;;;;;28.33;14.30;;;;;;;8.31;69.64;101207.84;20936199;28;20045;-73
2021/03/24 10:20:39;;;;;;;22.55;10.93;;;;;;;8.59;68.33;101213.88;20974016;28;20044;-73
2021/03/24 10:30:44;;;;;;;21.88;12.52;;;;;;;8.67;66.36;101204.94;20925976;28;20384;-73
2021/03/24 10:41:00;;;;;;;16.23;9.77;;;;;;;9.15;64.81;101194.56;20961572;28;20045;-74
2021/03/24 10:51:11;;;;;;;16.13;9.07;;;;;;;9.33;63.38;101191.28;20951201;28;20086;-74
2021/03/24 11:01:47;;;;;;;18.63;9.82;;;;;;;9.67;62.21;101177.81;20948347;28;20045;-74
2021/03/24 11:12:00;;;;;;;20.67;10.20;;;;;;;9.82;63.66;101169.38;20958026;28;20393;-75
2021/03/24 11:22:05;;;;;;;19.60;10.68;;;;;;;9.86;63.98;101156.13;20969421;28;20175;-73
2021/03/24 11:32:17;;;;;;;22.23;10.40;;;;;;;9.99;64.11;101138.22;20938810;28;20045;-74
2021/03/24 11:42:21;;;;;;;18.15;10.52;;;;;;;10.38;61.87;101121.81;20974788;28;20050;-73
2021/03/24 11:52:39;;;;;;;19.92;10.40;;;;;;;10.68;61.72;101110.03;20975182;28;20037;-73
2021/03/24 12:03:08;;;;;;;21.80;11.80;;;;;;;11.04;58.89;101108.44;20926441;28;20045;-73
2021/03/24 12:13:26;;;;;;;20.42;11.95;;;;;;;10.88;58.49;101094.31;20981443;28;20041;-73
2021/03/24 12:23:32;;;;;;;21.45;11.30;;;;;;;11.15;58.07;101079.13;20956378;28;20049;-72
2021/03/24 12:33:36;;;;;;;17.90;10.95;;;;;;;11.50;56.67;101073.09;20953342;28;20049;-72
2021/03/24 12:43:40;;;;;;;20.65;12.35;;;;;;;11.14;56.34;101062.56;20951813;28;20110;-72
2021/03/24 12:53:49;;;;;;;22.52;11.38;;;;;;;11.46;55.75;101045.34;20946889;28;20041;-72
2021/03/24 13:04:42;;;;;;;22.45;11.60;;;;;;;12.04;53.79;101039.06;20929841;28;20049;-72
2021/03/24 13:15:02;;;;;;;24.65;13.38;;;;;;;12.05;54.03;101015.34;20959765;28;20048;-72
2021/03/24 13:25:06;;;;;;;21.40;12.40;;;;;;;12.13;53.91;100993.97;20936226;28;20048;-73
2021/03/24 13:35:28;;;;;;;22.77;12.30;;;;;;;12.35;53.69;100994.56;20962881;28;20094;-73
2021/03/24 13:45:47;;;;;;;22.90;11.27;;;;;;;12.35;51.98;100978.81;20967966;28;20109;-72
2021/03/24 13:56:02;;;;;;;27.85;12.43;;;;;;;12.77;52.15;100979.16;20944706;28;20048;-73
2021/03/24 14:06:19;;;;;;;25.15;12.70;;;;;;;12.86;51.73;100952.38;20953350;28;20045;-72
2021/03/24 14:16:34;;;;;;;23.08;11.98;;;;;;;12.79;51.70;100930.03;20945191;28;20542;-73
2021/03/24 14:26:40;;;;;;;19.58;10.88;;;;;;;12.29;52.53;100929.28;20936672;28;20135;-73
2021/03/24 14:36:48;;;;;;;18.92;10.07;;;;;;;12.68;53.86;100913.16;20964768;28;20036;-72
2021/03/24 14:47:27;;;;;;;22.08;11.32;;;;;;;12.84;52.27;100908.75;20981014;28;20052;-73
2021/03/24 14:57:35;;;;;;;16.08;10.10;;;;;;;12.80;51.25;100899.31;20886704;28;20049;-73
2021/03/24 15:07:41;;;;;;;19.77;11.77;;;;;;;13.03;51.41;100904.16;20956854;28;20439;-72
2021/03/24 15:18:06;;;;;;;23.53;11.47;;;;;;;13.23;49.75;100897.81;20967435;28;20044;-72
2021/03/24 15:28:32;;;;;;;18.95;10.15;;;;;;;12.77;50.73;100891.63;20959177;28;20446;-72
2021/03/24 15:39:15;;;;;;;19.83;10.33;;;;;;;13.18;49.60;100870.94;20957593;28;20094;-72
2021/03/24 15:49:42;;;;;;;17.70;8.18;;;;;;;12.97;48.53;100870.34;20959706;28;20147;-73
2021/03/24 16:00:09;;;;;;;18.10;8.10;;;;;;;12.77;46.29;100857.47;20959786;28;20075;-73
2021/03/24 16:10:31;;;;;;;11.93;5.20;;;;;;;12.93;43.45;100853.06;20955822;28;20037;-72
2021/03/24 16:21:10;;;;;;;10.27;4.63;;;;;;;13.05;41.58;100841.84;20977729;28;20492;-73
2021/03/24 16:32:00;;;;;;;10.88;4.28;;;;;;;12.67;42.35;100830.88;20969712;28;20048;-73
2021/03/24 16:42:22;;;;;;;10.60;4.38;;;;;;;12.35;43.23;100831.78;20963001;28;20056;-73
2021/03/24 16:52:46;;;;;;;9.20;4.07;;;;;;;12.10;45.00;100820.94;20961789;28;20036;-73
2021/03/24 17:03:05;;;;;;;12.27;4.88;;;;;;;12.15;43.82;100816.28;20947096;28;20041;-73
2021/03/24 17:13:24;;;;;;;9.43;4.30;;;;;;;11.97;44.39;100820.75;20957758;28;20044;-73
2021/03/24 17:23:31;;;;;;;10.93;4.85;;;;;;;11.71;45.46;100826.50;20953633;28;20099;-73
2021/03/24 17:33:46;;;;;;;7.95;4.13;;;;;;;11.22;46.66;100820.28;20968493;28;20044;-73
2021/03/24 17:44:07;;;;;;;8.10;4.68;;;;;;;10.83;49.75;100831.78;20969924;28;20041;-73
2021/03/24 17:54:35;;;;;;;9.82;4.38;;;;;;;10.24;51.85;100825.00;20938416;28;20415;-72
2021/03/24 18:04:45;;;;;;;7.38;3.63;;;;;;;9.73;53.70;100835.16;20900881;28;20048;-73
2021/03/24 18:14:48;;;;;;;10.65;4.20;;;;;;;9.28;55.39;100838.81;20926967;28;20056;-73
2021/03/24 18:25:01;;;;;;;9.32;3.80;;;;;;;9.11;57.17;100840.41;20920823;28;20049;-72
2021/03/24 18:35:04;;;;;;;8.57;4.65;;;;;;;8.67;58.26;100844.81;20916914;28;20037;-72
2021/03/24 18:45:24;;;;;;;8.95;4.30;;;;;;;8.32;60.45;100854.84;20922184;28;20083;-72
2021/03/24 18:55:34;;;;;;;9.43;3.83;;;;;;;8.04;61.65;100854.13;20937215;28;20049;-72
2021/03/24 19:05:36;;;;;;;11.45;7.05;;;;;;;7.84;62.62;100856.59;20914549;28;20382;-72
2021/03/24 19:15:43;;;;;;;9.88;4.90;;;;;;;7.59;63.16;100865.28;20898341;28;20420;-72
2021/03/24 19:26:15;;;;;;;8.43;5.00;;;;;;;7.40;63.73;100876.38;20926958;28;20507;-72
2021/03/24 19:36:20;;;;;;;8.80;4.63;;;;;;;7.10;66.54;100867.84;20938495;28;20044;-72
2021/03/24 19:46:30;;;;;;;9.73;4.90;;;;;;;6.93;66.50;100867.53;20946072;28;20566;-73
2021/03/24 19:57:01;;;;;;;8.10;4.10;;;;;;;6.76;67.33;100868.88;20917599;28;20063;-73
2021/03/24 20:07:07;;;;;;;18.63;9.52;;;;;;;6.62;67.96;100871.06;20942431;28;20040;-72
2021/03/24 20:17:32;;;;;;;11.00;5.43;;;;;;;6.32;69.32;100866.78;20917964;28;20447;-72
2021/03/24 20:27:33;;;;;;;13.32;5.78;;;;;;;6.08;71.22;100872.69;20917169;28;20513;-73
2021/03/24 20:37:41;;;;;;;12.55;5.57;;;;;;;5.80;72.82;100865.63;20908724;28;20041;-73
2021/03/24 20:47:42;;;;;;;9.63;4.25;;;;;;;5.66;72.92;100872.94;20913103;28;20037;-73
2021/03/24 20:57:44;;;;;;;11.25;5.07;;;;;;;5.54;74.10;100865.47;20900425;28;20056;-73
2021/03/24 21:07:45;;;;;;;8.93;4.45;;;;;;;5.39;74.01;100864.13;20909675;28;20048;-73
2021/03/24 21:17:47;;;;;;;17.25;7.65;;;;;;;5.18;75.92;100852.53;20916665;28;20052;-73
2021/03/24 21:27:49;;;;;;;18.27;8.48;;;;;;;5.04;76.39;100848.56;20922189;28;20114;-73
2021/03/24 21:37:52;;;;;;;19.13;11.07;;;;;;;4.93;77.54;100838.47;20906553;28;20037;-73
2021/03/24 21:48:01;;;;;;;19.75;10.85;;;;;;;4.82;78.17;100840.47;20903437;28;20045;-73
2021/03/24 21:58:15;;;;;;;19.25;10.23;;;;;;;4.73;78.26;100840.66;20950541;28;20562;-70
2021/03/24 22:08:16;;;;;;;22.15;12.32;;;;;;;4.50;79.98;100830.84;20898848;28;20043;-71
2021/03/24 22:18:17;;;;;;;16.33;8.05;;;;;;;4.30;80.76;100833.88;20903317;28;20045;-71
2021/03/24 22:29:01;;;;;;;13.90;6.40;;;;;;;4.09;81.18;100834.31;20901182;28;20041;-70
2021/03/24 22:39:06;;;;;;;12.30;5.93;;;;;;;3.94;82.55;100831.19;20921926;28;20099;-70
2021/03/24 22:49:19;;;;;;;14.27;6.88;;;;;;;3.85;83.81;100840.00;20905396;28;20051;-71
2021/03/24 22:59:34;;;;;;;15.05;7.22;;;;;;;3.72;82.53;100841.97;20906952;28;20412;-70
2021/03/24 23:09:35;;;;;;;;;;;;;;;3.48;84.66;100832.09;20937451;28;20037;-70
2021/03/24 23:19:44;;;;;;;14.25;6.88;;;;;;;3.37;85.74;100821.94;20911682;28;20011;-70
2021/03/24 23:29:46;;;;;;;15.55;7.47;;;;;;;3.26;86.63;100821.25;20911221;28;20055;-70
2021/03/24 23:39:47;;;;;;;13.73;7.63;;;;;;;3.17;85.78;100821.44;20924893;28;20049;-70
2021/03/24 23:49:47;;;;;;;20.08;8.48;;;;;;;3.07;87.22;100817.28;20910979;28;20041;-70
2021/03/24 23:59:49;;;;;;;23.02;10.00;;;;;;;2.99;86.99;100811.41;20902733;28;20484;-70
